Terminal Aerodrome Forecast
Issued by NWS

Home | Current Version | Previous Version | Text Only | Print | Product List | Glossary On
Versions: 1 2 3 4 5 6 7 8 9 10 11 12
280
FTUS43 KIWX 301120
TAFSBN
TAF
KSBN 301120Z 3012/0112 04010KT P6SM VCSH OVC008
     FM301500 05011KT P6SM VCSH OVC015
     FM301900 05012KT 6SM -SHRA BR OVC020
     FM010000 06009KT 5SM -SHRA BR OVC010=

USA.gov is the U.S. government's official web portal to all federal, state and local government web resources and services.